Red Deer Regional Airport
CYQF : now visible

Airfield :











YOU CAN JOIN US ON...

 
LOGIN :

Register | Disclaimer

   EN    FR    IT 

 









Legend :    VFR   Marginal VFR   IFR   Intensive IFR   Very Intensive IFR
Visi :
Ceiling :
>= 8 km
>= 3000ft
5 to 8 km
1000 to 3000 ft
1500m to 5 km
500 to 1000 ft
800 to 1500m
200 to 500 ft
< 800m
< 200 ft
Symbols :   Thunderstorms  Fog  Heavy snow  Heavy precipitations  Wind > 20 kt






- Airport Elevation : 2968 ft
- IATA code : YQF


CYQF - Red Deer Regional

CURRENT METAR :
  • 202200Z AUTO 33008G15KT 300V010 9SM FEW060 SCT075 20/07 A3017 RMK SLP225 DENSITY ALT 4000FT

EXPIRED METARs :
  • 202100Z AUTO 35011G20KT 310V020 9SM SCT060 20/06 A3017 RMK SLP227 DENSITY ALT 4000FT
  • 202000Z AUTO 32012G19KT 9SM FEW060 SCT071 20/06 A3018 RMK SLP228 DENSITY ALT 4000FT

TAF TAF CYQF
Valid from the 20 at 18:00 until the 21 at 06:00 UTC


201739Z 2018/2106 35008KT P6SM FEW040
BECMG 2018/2020 34012KT
FM210200 01008KT P6SM SKC
BECMG 2104/2106 VRB03KT RMK FCST BASED ON AUTO OBS. NXT FCST BY 210000Z
CZEG FIR / North America



MET'MAP, your aeronautical weather chart ! - Copyright ORBIFLY December 2007 - Disclaimer

ORBIFLY MET'MAP TEAM :

Programming & Development : Alexandra Zaïnal
Concept & original design : Baudouin d'Aumeries
Assistance for programming : Marc-Olivier Méhu
Technical & hardware support : Manuel Goepfert

Contact : metmap@orbifly.com




SOURCES & CREDITS :

   NOAA       Earth
Advisory